createdAt,value
2023-01-29T00:01:56.834Z,69.48
2023-01-29T00:04:23.910Z,69.47
2023-01-29T00:06:50.350Z,69.77
2023-01-29T00:09:16.796Z,69.44
2023-01-29T00:11:43.342Z,69.66
2023-01-29T00:14:09.973Z,69.72
2023-01-29T00:16:36.474Z,69.72
2023-01-29T00:19:04.153Z,69.71
2023-01-29T00:21:33.729Z,69.54
2023-01-29T00:24:00.533Z,69.55
2023-01-29T00:26:27.609Z,69.64
2023-01-29T00:28:54.624Z,69.68
2023-01-29T00:31:23.526Z,69.63
2023-01-29T00:33:50.861Z,69.88
2023-01-29T00:36:20.288Z,69.98
2023-01-29T00:38:54.602Z,69.90
2023-01-29T00:41:41.575Z,69.90
2023-01-29T00:44:28.458Z,69.75
2023-01-29T00:46:55.006Z,69.73
2023-01-29T00:49:21.975Z,69.80
2023-01-29T00:52:08.665Z,70.11
2023-01-29T00:54:35.842Z,69.90
2023-01-29T00:57:03.611Z,70.03
2023-01-29T00:59:30.532Z,70.00
2023-01-29T01:02:15.691Z,70.19
2023-01-29T01:04:42.172Z,69.86
2023-01-29T01:07:08.708Z,69.85
2023-01-29T01:09:55.425Z,69.86
2023-01-29T01:12:22.246Z,70.21
2023-01-29T01:14:49.072Z,70.19
2023-01-29T01:17:15.844Z,70.27
2023-01-29T01:19:42.567Z,70.20
2023-01-29T01:22:09.182Z,70.44
2023-01-29T01:24:36.743Z,70.24
2023-01-29T01:27:03.264Z,70.16
2023-01-29T01:29:29.985Z,70.31
2023-01-29T01:31:57.559Z,70.08
2023-01-29T01:34:24.160Z,70.37
2023-01-29T01:36:50.567Z,70.39
2023-01-29T01:39:16.967Z,70.16
2023-01-29T01:41:43.423Z,70.13
2023-01-29T01:44:48.962Z,70.27
2023-01-29T01:47:16.889Z,70.07
2023-01-29T01:49:44.881Z,70.40
2023-01-29T01:52:13.586Z,70.33
2023-01-29T01:54:40.183Z,70.35
2023-01-29T01:57:16.132Z,70.47
2023-01-29T01:59:57.923Z,70.32
2023-01-29T02:02:43.707Z,70.39
2023-01-29T02:05:31.760Z,70.20
2023-01-29T02:08:17.827Z,70.35
2023-01-29T02:10:46.666Z,70.29
2023-01-29T02:13:17.847Z,70.32
2023-01-29T02:15:49.207Z,70.50
2023-01-29T02:18:18.933Z,70.41
2023-01-29T02:21:04.036Z,70.30
2023-01-29T02:23:52.415Z,70.55
2023-01-29T02:26:36.722Z,70.43
2023-01-29T02:29:25.262Z,70.51
2023-01-29T02:32:00.423Z,70.54
2023-01-29T02:34:59.412Z,70.51
2023-01-29T02:37:35.970Z,70.68
2023-01-29T02:40:17.497Z,70.70
2023-01-29T02:42:53.222Z,70.49
2023-01-29T02:45:38.478Z,70.43
2023-01-29T02:48:05.677Z,70.69
2023-01-29T02:50:45.173Z,70.76
2023-01-29T02:53:35.944Z,70.68
2023-01-29T02:56:15.803Z,70.73
2023-01-29T02:58:45.468Z,70.48
2023-01-29T03:01:22.069Z,70.73
2023-01-29T03:03:56.480Z,70.70
2023-01-29T03:06:32.416Z,70.69
2023-01-29T03:09:08.970Z,70.69
2023-01-29T03:11:46.629Z,70.51
2023-01-29T03:14:18.508Z,70.94
2023-01-29T03:16:51.915Z,70.93
2023-01-29T03:19:26.180Z,70.90
2023-01-29T03:22:01.159Z,70.67
2023-01-29T03:24:52.654Z,70.95
2023-01-29T03:27:45.633Z,71.00
2023-01-29T03:30:34.836Z,71.00
2023-01-29T03:33:28.397Z,70.81
2023-01-29T03:36:06.619Z,71.19
2023-01-29T03:38:33.223Z,70.80
2023-01-29T03:41:20.778Z,71.08
2023-01-29T03:44:15.706Z,70.73
2023-01-29T03:46:58.320Z,70.94
2023-01-29T03:49:56.199Z,70.88
2023-01-29T03:52:43.298Z,70.75
2023-01-29T03:55:20.100Z,71.13
2023-01-29T03:58:04.890Z,71.16
2023-01-29T04:00:38.475Z,71.04
2023-01-29T04:03:22.948Z,71.03
2023-01-29T04:06:05.466Z,70.72
2023-01-29T04:08:36.106Z,71.06
2023-01-29T04:11:10.361Z,70.79
2023-01-29T04:13:38.130Z,71.10
2023-01-29T04:16:08.822Z,71.16
2023-01-29T04:18:50.876Z,71.17
2023-01-29T04:21:24.994Z,70.94
2023-01-29T04:23:51.653Z,71.13
2023-01-29T04:26:46.524Z,71.05
2023-01-29T04:29:43.429Z,70.85
2023-01-29T04:32:30.955Z,71.08
2023-01-29T04:35:17.766Z,71.15
2023-01-29T04:37:57.938Z,70.96
2023-01-29T04:40:50.976Z,70.88
2023-01-29T04:43:41.438Z,71.06
2023-01-29T04:46:17.571Z,70.79
2023-01-29T04:49:01.201Z,71.04
2023-01-29T04:51:58.556Z,70.76
2023-01-29T04:54:29.375Z,70.88
2023-01-29T04:57:27.076Z,70.90
2023-01-29T05:00:10.029Z,71.22
2023-01-29T05:02:40.983Z,70.79
2023-01-29T05:05:09.484Z,71.03
2023-01-29T05:07:38.500Z,71.11
2023-01-29T05:10:08.134Z,70.91
2023-01-29T05:12:37.077Z,71.06
2023-01-29T05:15:08.155Z,71.06
2023-01-29T05:17:34.737Z,71.01
2023-01-29T05:20:01.216Z,71.01
2023-01-29T05:22:28.016Z,71.35
2023-01-29T05:24:54.487Z,70.87
2023-01-29T05:27:52.634Z,71.13
2023-01-29T05:30:19.519Z,70.97
2023-01-29T05:32:46.217Z,71.10
2023-01-29T05:35:12.859Z,71.16
2023-01-29T05:37:39.534Z,70.87
2023-01-29T05:40:08.758Z,70.99
2023-01-29T05:42:35.354Z,71.01
2023-01-29T05:45:01.914Z,70.92
2023-01-29T05:47:28.404Z,71.04
2023-01-29T05:49:54.868Z,70.94
2023-01-29T05:52:21.371Z,71.26
2023-01-29T05:54:48.008Z,71.24
2023-01-29T05:57:15.044Z,71.12
2023-01-29T05:59:41.552Z,71.15
2023-01-29T06:02:08.117Z,71.11
2023-01-29T06:04:34.639Z,71.13
2023-01-29T06:07:03.376Z,71.24
2023-01-29T06:09:30.122Z,71.14
2023-01-29T06:11:56.688Z,70.87
2023-01-29T06:14:23.399Z,70.90
2023-01-29T06:16:49.924Z,70.71
2023-01-29T06:19:18.112Z,70.97
2023-01-29T06:21:44.614Z,70.79
2023-01-29T06:24:11.064Z,71.06
2023-01-29T06:26:37.541Z,70.80
2023-01-29T06:29:04.043Z,70.86
2023-01-29T06:31:38.666Z,70.72
2023-01-29T06:34:06.655Z,70.87
2023-01-29T06:36:33.306Z,70.95
2023-01-29T06:38:59.794Z,70.94
2023-01-29T06:41:26.479Z,71.02
2023-01-29T06:43:52.992Z,70.78
2023-01-29T06:46:19.700Z,70.90
2023-01-29T06:48:46.193Z,70.75
2023-01-29T06:51:12.716Z,70.78
2023-01-29T06:53:39.684Z,70.83
2023-01-29T06:56:07.171Z,70.79
2023-01-29T06:58:33.643Z,71.00
2023-01-29T07:01:17.448Z,71.03
2023-01-29T07:03:51.969Z,70.80
2023-01-29T07:06:19.237Z,70.86
2023-01-29T07:08:46.394Z,70.88
2023-01-29T07:11:13.144Z,71.10
2023-01-29T07:13:39.571Z,71.27
2023-01-29T07:16:07.011Z,71.07
2023-01-29T07:18:33.536Z,71.13
2023-01-29T07:21:04.354Z,70.95
2023-01-29T07:23:30.790Z,71.19
2023-01-29T07:26:01.227Z,71.26
2023-01-29T07:28:27.751Z,70.93
2023-01-29T07:30:58.466Z,71.16
2023-01-29T07:33:25.709Z,71.17
2023-01-29T07:35:52.275Z,71.20
2023-01-29T07:38:18.763Z,71.18
2023-01-29T07:40:45.395Z,71.11
2023-01-29T07:43:12.123Z,70.96
2023-01-29T07:45:39.816Z,71.03
2023-01-29T07:48:07.635Z,71.00
2023-01-29T07:50:35.392Z,71.11
2023-01-29T07:53:02.073Z,71.11
2023-01-29T07:55:28.599Z,71.11
2023-01-29T07:58:00.819Z,70.75
2023-01-29T08:00:28.078Z,71.02
2023-01-29T08:02:54.597Z,70.76
2023-01-29T08:05:21.172Z,70.95
2023-01-29T08:08:05.700Z,70.90
2023-01-29T08:10:34.463Z,71.25
2023-01-29T08:13:02.041Z,71.05
2023-01-29T08:15:29.257Z,70.89
2023-01-29T08:17:58.157Z,71.26
2023-01-29T08:20:25.331Z,70.97
2023-01-29T08:23:02.103Z,71.04
2023-01-29T08:25:29.577Z,71.25
2023-01-29T08:27:57.844Z,71.24
2023-01-29T08:30:26.265Z,71.10
2023-01-29T08:32:52.784Z,71.33
2023-01-29T08:35:19.691Z,71.25
2023-01-29T08:37:56.302Z,71.17
2023-01-29T08:40:23.021Z,71.07
2023-01-29T08:42:49.632Z,71.39
2023-01-29T08:45:16.392Z,71.20
2023-01-29T08:47:49.934Z,71.40
2023-01-29T08:50:17.974Z,71.17
2023-01-29T08:52:45.695Z,71.17
2023-01-29T08:55:12.816Z,71.49
2023-01-29T08:57:39.554Z,71.19
2023-01-29T09:00:08.097Z,71.50
2023-01-29T09:02:34.736Z,71.40
2023-01-29T09:05:01.229Z,71.62
2023-01-29T09:07:29.614Z,71.64
2023-01-29T09:09:56.084Z,71.59
2023-01-29T09:12:22.581Z,71.49
2023-01-29T09:14:49.120Z,71.49
2023-01-29T09:17:15.755Z,71.51
2023-01-29T09:19:42.289Z,71.53
2023-01-29T09:22:10.940Z,71.74
2023-01-29T09:24:38.352Z,71.80
2023-01-29T09:27:05.378Z,71.93
2023-01-29T09:29:33.568Z,71.93
2023-01-29T09:32:01.291Z,71.69
2023-01-29T09:34:27.760Z,71.89
2023-01-29T09:36:54.423Z,72.00
2023-01-29T09:39:20.846Z,71.92
2023-01-29T09:41:58.284Z,72.21
2023-01-29T09:44:40.436Z,72.30
2023-01-29T09:47:13.237Z,72.01
2023-01-29T09:49:45.885Z,72.03
2023-01-29T09:52:19.099Z,72.08
2023-01-29T09:54:49.422Z,72.10
2023-01-29T09:57:22.935Z,71.95
2023-01-29T09:59:49.547Z,72.21
2023-01-29T10:02:41.983Z,72.06
2023-01-29T10:05:08.524Z,72.15
2023-01-29T10:08:12.442Z,72.35
2023-01-29T10:10:54.373Z,72.39
2023-01-29T10:13:30.058Z,72.27
2023-01-29T10:16:28.444Z,72.08
2023-01-29T10:19:10.466Z,72.08
2023-01-29T10:21:59.063Z,72.22
2023-01-29T10:24:42.333Z,72.47
2023-01-29T10:27:15.900Z,72.24
2023-01-29T10:29:44.231Z,72.12
2023-01-29T10:32:20.848Z,72.22
2023-01-29T10:34:54.820Z,72.53
2023-01-29T10:37:41.098Z,72.57
2023-01-29T10:40:20.179Z,72.67
2023-01-29T10:42:59.391Z,72.61
2023-01-29T10:45:40.165Z,72.53
2023-01-29T10:48:31.548Z,72.59
2023-01-29T10:51:20.510Z,72.52
2023-01-29T10:54:03.255Z,72.66
2023-01-29T10:56:38.532Z,72.64
2023-01-29T10:59:22.715Z,72.61
2023-01-29T11:01:49.143Z,72.91
2023-01-29T11:04:15.674Z,72.46
2023-01-29T11:06:42.319Z,72.85
2023-01-29T11:09:26.608Z,72.48
2023-01-29T11:11:57.418Z,73.61
2023-01-29T11:14:38.325Z,73.58
2023-01-29T11:17:04.966Z,73.35
2023-01-29T11:19:40.746Z,72.78
2023-01-29T11:22:15.211Z,73.12
2023-01-29T11:24:42.065Z,73.11
2023-01-29T11:27:25.877Z,72.90
2023-01-29T11:29:53.783Z,73.20
2023-01-29T11:32:29.950Z,72.86
2023-01-29T11:35:01.107Z,72.96
2023-01-29T11:38:05.815Z,72.56
2023-01-29T11:40:36.787Z,72.93
2023-01-29T11:43:33.033Z,72.92
2023-01-29T11:46:05.744Z,72.84
2023-01-29T11:48:40.889Z,72.89
2023-01-29T11:51:08.725Z,72.93
2023-01-29T11:53:49.788Z,72.77
2023-01-29T11:56:28.928Z,72.53
2023-01-29T11:58:57.540Z,72.48
2023-01-29T12:01:36.627Z,72.67
2023-01-29T12:04:19.383Z,72.52
2023-01-29T12:06:50.426Z,72.55
2023-01-29T12:09:20.633Z,72.57
2023-01-29T12:11:47.345Z,72.90
2023-01-29T12:14:27.011Z,72.64
2023-01-29T12:17:01.254Z,72.66
2023-01-29T12:19:42.938Z,72.48
2023-01-29T12:22:18.628Z,72.52
2023-01-29T12:24:58.093Z,72.17
2023-01-29T12:27:47.991Z,72.53
2023-01-29T12:30:22.210Z,72.35
2023-01-29T12:33:03.470Z,72.54
2023-01-29T12:35:43.386Z,72.52
2023-01-29T12:38:19.697Z,72.32
2023-01-29T12:40:58.350Z,72.54
2023-01-29T12:43:35.791Z,72.16
2023-01-29T12:46:03.970Z,72.34
2023-01-29T12:48:33.981Z,72.25
2023-01-29T12:51:25.755Z,72.15
2023-01-29T12:54:00.299Z,72.18
2023-01-29T12:56:52.956Z,71.85
2023-01-29T12:59:45.421Z,72.29
2023-01-29T13:02:45.907Z,72.06
2023-01-29T13:05:34.020Z,72.02
2023-01-29T13:08:14.394Z,72.15
2023-01-29T13:10:45.623Z,72.35
2023-01-29T13:13:32.926Z,72.33
2023-01-29T13:16:01.035Z,72.08
2023-01-29T13:18:42.277Z,72.18
2023-01-29T13:21:41.853Z,72.02
2023-01-29T13:24:16.481Z,72.24
2023-01-29T13:26:49.706Z,71.92
2023-01-29T13:29:29.506Z,72.13
2023-01-29T13:31:58.184Z,71.95
2023-01-29T13:34:37.768Z,72.11
2023-01-29T13:37:12.603Z,72.08
2023-01-29T13:39:46.024Z,72.27
2023-01-29T13:42:23.897Z,72.02
2023-01-29T13:44:53.557Z,72.13
2023-01-29T13:47:31.891Z,72.18
2023-01-29T13:50:18.018Z,72.08
2023-01-29T13:52:52.621Z,72.22
2023-01-29T13:55:19.774Z,72.11
2023-01-29T13:57:46.305Z,72.02
2023-01-29T14:00:21.650Z,71.99
2023-01-29T14:03:13.630Z,71.84
2023-01-29T14:05:56.445Z,71.78
2023-01-29T14:08:35.961Z,71.74
2023-01-29T14:11:17.410Z,72.06
2023-01-29T14:13:46.185Z,71.90
2023-01-29T14:16:12.573Z,71.86
2023-01-29T14:18:48.484Z,71.72
2023-01-29T14:21:25.066Z,71.82
2023-01-29T14:23:53.442Z,72.03
2023-01-29T14:26:21.588Z,71.64
2023-01-29T14:28:57.602Z,71.93
2023-01-29T14:31:53.683Z,71.47
2023-01-29T14:34:30.623Z,71.77
2023-01-29T14:37:20.516Z,72.02
2023-01-29T14:39:52.988Z,71.94
2023-01-29T14:42:29.565Z,71.75
2023-01-29T14:45:01.087Z,71.59
2023-01-29T14:47:27.445Z,71.70
2023-01-29T14:50:01.998Z,71.75
2023-01-29T14:52:35.807Z,71.93
2023-01-29T14:55:06.773Z,71.65
2023-01-29T14:57:33.386Z,71.86
2023-01-29T15:00:05.274Z,71.94
2023-01-29T15:02:44.322Z,71.89
2023-01-29T15:05:17.924Z,71.90
2023-01-29T15:07:54.004Z,71.72
2023-01-29T15:10:27.011Z,71.75
2023-01-29T15:13:20.515Z,71.80
2023-01-29T15:15:56.032Z,71.89
2023-01-29T15:18:37.115Z,71.70
2023-01-29T15:21:11.639Z,71.94
2023-01-29T15:23:38.576Z,71.67
2023-01-29T15:26:08.689Z,72.08
2023-01-29T15:28:35.882Z,71.88
2023-01-29T15:31:05.568Z,71.57
2023-01-29T15:33:33.568Z,71.73
2023-01-29T15:36:07.494Z,71.53
2023-01-29T15:38:36.864Z,71.55
2023-01-29T15:41:17.334Z,71.75
2023-01-29T15:43:46.596Z,71.89
2023-01-29T15:46:25.301Z,71.38
2023-01-29T15:48:54.519Z,71.68
2023-01-29T15:51:23.891Z,71.72
2023-01-29T15:53:56.312Z,71.38
2023-01-29T15:56:29.550Z,71.22
2023-01-29T15:58:57.998Z,71.33
2023-01-29T16:01:28.674Z,71.87
2023-01-29T16:03:59.382Z,71.82
2023-01-29T16:06:26.917Z,71.50
2023-01-29T16:08:55.074Z,71.57
2023-01-29T16:11:21.736Z,71.43
2023-01-29T16:13:50.338Z,71.41
2023-01-29T16:16:23.406Z,71.38
2023-01-29T16:18:59.939Z,71.65
2023-01-29T16:21:33.181Z,71.62
2023-01-29T16:24:03.095Z,71.49
2023-01-29T16:26:36.261Z,71.86
2023-01-29T16:29:12.103Z,71.36
2023-01-29T16:31:39.988Z,71.34
2023-01-29T16:34:10.349Z,71.72
2023-01-29T16:36:37.032Z,71.67
2023-01-29T16:39:06.544Z,71.38
2023-01-29T16:41:35.983Z,71.50
2023-01-29T16:44:03.717Z,71.52
2023-01-29T16:46:36.493Z,71.23
2023-01-29T16:49:25.623Z,71.42
2023-01-29T16:51:53.371Z,71.30
2023-01-29T16:54:23.969Z,71.56
2023-01-29T16:56:57.670Z,71.76
2023-01-29T16:59:37.801Z,71.25
2023-01-29T17:02:11.134Z,71.45
2023-01-29T17:04:41.818Z,71.74
2023-01-29T17:07:17.476Z,71.53
2023-01-29T17:09:44.140Z,71.34
2023-01-29T17:12:19.981Z,71.77
2023-01-29T17:15:04.929Z,71.70
2023-01-29T17:17:34.219Z,71.54
2023-01-29T17:20:14.025Z,71.55
2023-01-29T17:22:40.577Z,71.54
2023-01-29T17:25:07.370Z,71.85
2023-01-29T17:27:33.844Z,71.53
2023-01-29T17:30:00.461Z,71.56
2023-01-29T17:32:43.843Z,71.79
2023-01-29T17:35:17.017Z,71.66
2023-01-29T17:37:44.372Z,71.69
2023-01-29T17:40:22.569Z,71.76
2023-01-29T17:42:49.029Z,71.72
2023-01-29T17:45:16.339Z,71.52
2023-01-29T17:47:42.982Z,71.87
2023-01-29T17:50:21.067Z,71.49
2023-01-29T17:52:47.512Z,71.49
2023-01-29T17:55:14.013Z,71.53
2023-01-29T17:57:41.422Z,71.55
2023-01-29T18:00:21.222Z,71.67
2023-01-29T18:02:47.829Z,71.96
2023-01-29T18:05:16.119Z,71.61
2023-01-29T18:07:45.021Z,71.91
2023-01-29T18:10:18.348Z,71.78
2023-01-29T18:12:45.220Z,71.64
2023-01-29T18:15:12.202Z,71.66
2023-01-29T18:17:38.768Z,71.94
2023-01-29T18:20:25.584Z,71.82
2023-01-29T18:22:52.905Z,71.95
2023-01-29T18:25:20.110Z,71.74
2023-01-29T18:27:46.696Z,71.85
2023-01-29T18:30:13.956Z,71.68
2023-01-29T18:32:40.617Z,71.71
2023-01-29T18:35:08.054Z,71.62
2023-01-29T18:37:34.705Z,72.01
2023-01-29T18:40:01.612Z,71.68
2023-01-29T18:42:31.979Z,71.69
2023-01-29T18:44:58.680Z,71.53
2023-01-29T18:47:25.096Z,71.70
2023-01-29T18:49:52.034Z,71.86
2023-01-29T18:52:18.530Z,71.66
2023-01-29T18:54:44.920Z,71.88
2023-01-29T18:57:14.599Z,71.94
2023-01-29T18:59:41.686Z,71.82
2023-01-29T19:02:13.626Z,71.65
2023-01-29T19:04:40.202Z,71.79
2023-01-29T19:07:09.176Z,71.81
2023-01-29T19:09:36.255Z,71.79
2023-01-29T19:12:02.776Z,71.74
2023-01-29T19:14:29.227Z,71.80
2023-01-29T19:16:55.876Z,71.63
2023-01-29T19:19:22.371Z,71.86
2023-01-29T19:21:52.196Z,72.01
2023-01-29T19:24:18.636Z,71.95
2023-01-29T19:26:45.067Z,71.87
2023-01-29T19:29:11.553Z,71.98
2023-01-29T19:31:38.085Z,72.03
2023-01-29T19:34:04.544Z,71.71
2023-01-29T19:36:31.212Z,71.95
2023-01-29T19:38:57.772Z,71.86
2023-01-29T19:41:24.507Z,71.88
2023-01-29T19:43:51.168Z,71.59
2023-01-29T19:46:17.631Z,71.97
2023-01-29T19:48:44.027Z,71.93
2023-01-29T19:51:11.410Z,71.78
2023-01-29T19:53:39.641Z,71.68
2023-01-29T19:56:11.935Z,72.01
2023-01-29T19:58:38.468Z,71.90
2023-01-29T20:01:20.528Z,71.94
2023-01-29T20:03:48.937Z,72.06
2023-01-29T20:06:18.405Z,72.06
2023-01-29T20:08:48.330Z,71.80
2023-01-29T20:11:19.537Z,71.90
2023-01-29T20:13:51.238Z,71.86
2023-01-29T20:16:19.315Z,71.86
2023-01-29T20:18:46.115Z,71.72
2023-01-29T20:21:15.360Z,72.01
2023-01-29T20:23:43.751Z,71.84
2023-01-29T20:26:14.337Z,72.00
2023-01-29T20:28:40.836Z,72.16
2023-01-29T20:31:08.776Z,71.92
2023-01-29T20:33:37.556Z,71.95
2023-01-29T20:36:07.827Z,72.02
2023-01-29T20:38:34.714Z,72.08
2023-01-29T20:41:06.134Z,71.96
2023-01-29T20:43:33.671Z,72.11
2023-01-29T20:46:00.942Z,72.22
2023-01-29T20:48:27.779Z,71.83
2023-01-29T20:50:54.272Z,72.25
2023-01-29T20:53:20.780Z,72.20
2023-01-29T20:55:47.432Z,71.90
2023-01-29T20:58:14.239Z,71.92
2023-01-29T21:00:41.296Z,71.81
2023-01-29T21:03:07.766Z,72.05
2023-01-29T21:05:34.211Z,72.16
2023-01-29T21:08:00.705Z,72.27
2023-01-29T21:10:27.346Z,72.29
2023-01-29T21:12:54.642Z,72.03
2023-01-29T21:15:21.583Z,72.06
2023-01-29T21:17:48.172Z,72.13
2023-01-29T21:20:15.059Z,72.15
2023-01-29T21:22:43.834Z,72.13
2023-01-29T21:25:10.262Z,72.05
2023-01-29T21:27:37.236Z,72.12
2023-01-29T21:30:04.512Z,72.01
2023-01-29T21:32:31.098Z,72.22
2023-01-29T21:34:57.610Z,71.95
2023-01-29T21:37:24.071Z,72.25
2023-01-29T21:39:50.519Z,72.04
2023-01-29T21:42:35.659Z,72.03
2023-01-29T21:45:02.099Z,72.38
2023-01-29T21:47:28.491Z,72.25
2023-01-29T21:49:57.911Z,72.04
2023-01-29T21:52:24.365Z,72.30
2023-01-29T21:54:51.312Z,72.25
2023-01-29T21:57:17.794Z,72.34
2023-01-29T21:59:46.850Z,72.18
2023-01-29T22:02:19.931Z,72.25
2023-01-29T22:04:46.415Z,72.04
2023-01-29T22:07:13.028Z,72.49
2023-01-29T22:09:39.841Z,72.14
2023-01-29T22:12:07.367Z,72.40
2023-01-29T22:14:34.293Z,72.24
2023-01-29T22:17:00.832Z,72.27
2023-01-29T22:19:29.143Z,72.36
2023-01-29T22:21:56.191Z,72.40
2023-01-29T22:24:23.041Z,72.23
2023-01-29T22:26:49.705Z,72.16
2023-01-29T22:29:19.530Z,72.42
2023-01-29T22:31:46.515Z,72.56
2023-01-29T22:34:14.138Z,72.48
2023-01-29T22:36:40.709Z,72.51
2023-01-29T22:39:10.535Z,72.46
2023-01-29T22:41:36.999Z,72.36
2023-01-29T22:44:03.580Z,72.86
2023-01-29T22:46:30.305Z,72.66
2023-01-29T22:48:56.851Z,72.57
2023-01-29T22:51:23.564Z,72.41
2023-01-29T22:53:52.737Z,72.46
2023-01-29T22:56:22.161Z,72.48
2023-01-29T22:58:53.466Z,72.78
2023-01-29T23:01:21.534Z,72.70
2023-01-29T23:03:48.402Z,72.83
2023-01-29T23:06:15.772Z,72.73
2023-01-29T23:08:42.610Z,72.38
2023-01-29T23:11:17.627Z,72.82
2023-01-29T23:13:48.601Z,72.77
2023-01-29T23:16:16.337Z,72.91
2023-01-29T23:18:43.843Z,72.61
2023-01-29T23:21:11.268Z,72.56
2023-01-29T23:23:38.142Z,72.61
2023-01-29T23:26:24.760Z,72.54
2023-01-29T23:28:51.434Z,72.71
2023-01-29T23:31:18.261Z,72.77
2023-01-29T23:33:44.755Z,72.52
2023-01-29T23:36:11.162Z,72.67
2023-01-29T23:38:37.547Z,72.67
2023-01-29T23:41:04.175Z,72.91
2023-01-29T23:43:30.990Z,72.51
2023-01-29T23:45:57.834Z,72.67
2023-01-29T23:48:24.466Z,72.80
2023-01-29T23:50:51.204Z,72.60
2023-01-29T23:53:17.804Z,72.77
2023-01-29T23:55:44.255Z,72.68
2023-01-29T23:58:10.726Z,72.94
